createdAt,value
2023-01-01T00:00:54.895Z,0
2023-01-01T00:01:54.786Z,0
2023-01-01T00:02:54.761Z,0
2023-01-01T00:03:54.807Z,0
2023-01-01T00:04:54.772Z,0
2023-01-01T00:05:54.766Z,0
2023-01-01T00:06:54.763Z,0
2023-01-01T00:07:58.248Z,0
2023-01-01T00:08:54.767Z,0
2023-01-01T00:09:54.798Z,0
2023-01-01T00:10:54.763Z,0
2023-01-01T00:11:54.802Z,0
2023-01-01T00:12:54.764Z,0
2023-01-01T00:13:54.768Z,0
2023-01-01T00:14:54.778Z,0
2023-01-01T00:15:54.765Z,0
2023-01-01T00:16:54.810Z,0
2023-01-01T00:17:54.768Z,0
2023-01-01T00:18:54.772Z,0
2023-01-01T00:19:54.783Z,0
2023-01-01T00:20:54.778Z,0
2023-01-01T00:21:54.777Z,0
2023-01-01T00:22:55.852Z,0
2023-01-01T00:23:54.778Z,0
2023-01-01T00:24:54.789Z,0
2023-01-01T00:25:54.781Z,0
2023-01-01T00:26:54.783Z,0
2023-01-01T00:27:54.777Z,0
2023-01-01T00:28:54.784Z,0
2023-01-01T00:29:54.813Z,0
2023-01-01T00:30:54.757Z,0
2023-01-01T00:31:54.909Z,0
2023-01-01T00:32:55.881Z,0
2023-01-01T00:33:54.788Z,0
2023-01-01T00:34:54.830Z,0
2023-01-01T00:35:54.776Z,0
2023-01-01T00:36:54.792Z,0
2023-01-01T00:37:54.804Z,0
2023-01-01T00:38:54.778Z,0
2023-01-01T00:39:54.796Z,0
2023-01-01T00:40:54.778Z,0
2023-01-01T00:41:54.778Z,0
2023-01-01T00:42:54.785Z,0
2023-01-01T00:43:54.778Z,0
2023-01-01T00:44:54.796Z,0
2023-01-01T00:45:54.850Z,0
2023-01-01T00:46:54.784Z,0
2023-01-01T00:47:54.780Z,0
2023-01-01T00:48:54.780Z,0
2023-01-01T00:49:54.790Z,0
2023-01-01T00:50:54.773Z,0
2023-01-01T00:51:54.780Z,0
2023-01-01T00:52:54.787Z,0
2023-01-01T00:53:54.775Z,0
2023-01-01T00:54:54.877Z,0
2023-01-01T00:55:54.796Z,0
2023-01-01T00:56:54.776Z,0
2023-01-01T00:57:54.777Z,0
2023-01-01T00:59:00.362Z,0
2023-01-01T00:59:54.800Z,0
2023-01-01T01:00:54.971Z,0
2023-01-01T01:01:55.034Z,0
2023-01-01T01:02:54.798Z,0
2023-01-01T01:03:54.764Z,0
2023-01-01T01:04:54.793Z,0
2023-01-01T01:05:54.758Z,0
2023-01-01T01:06:54.778Z,0
2023-01-01T01:07:54.778Z,0
2023-01-01T01:08:54.768Z,0
2023-01-01T01:09:54.784Z,0
2023-01-01T01:10:54.761Z,0
2023-01-01T01:12:18.284Z,0
2023-01-01T01:12:54.764Z,0
2023-01-01T01:13:54.784Z,0
2023-01-01T01:14:54.782Z,0
2023-01-01T01:15:56.376Z,0
2023-01-01T01:16:54.828Z,0
2023-01-01T01:17:54.762Z,0
2023-01-01T01:18:54.759Z,0
2023-01-01T01:19:54.776Z,0
2023-01-01T01:20:54.774Z,0
2023-01-01T01:21:54.756Z,0
2023-01-01T01:22:54.762Z,0
2023-01-01T01:23:54.765Z,0
2023-01-01T01:24:54.780Z,0
2023-01-01T01:25:54.767Z,0
2023-01-01T01:26:54.761Z,0
2023-01-01T01:27:54.765Z,0
2023-01-01T01:28:54.759Z,0
2023-01-01T01:29:54.779Z,0
2023-01-01T01:30:54.852Z,0
2023-01-01T01:31:54.757Z,0
2023-01-01T01:32:54.755Z,0
2023-01-01T01:33:54.779Z,0
2023-01-01T01:34:54.792Z,0
2023-01-01T01:35:54.792Z,0
2023-01-01T01:36:54.782Z,0
2023-01-01T01:37:54.779Z,0
2023-01-01T01:38:54.782Z,0
2023-01-01T01:39:54.790Z,0
2023-01-01T01:40:54.770Z,0
2023-01-01T01:41:54.776Z,0
2023-01-01T01:42:54.774Z,0
2023-01-01T01:43:54.778Z,0
2023-01-01T01:44:54.793Z,0
2023-01-01T01:45:54.800Z,0
2023-01-01T01:46:54.778Z,0
2023-01-01T01:47:54.772Z,0
2023-01-01T01:48:54.775Z,0
2023-01-01T01:49:54.787Z,0
2023-01-01T01:50:54.786Z,0
2023-01-01T01:51:54.771Z,0
2023-01-01T01:52:54.774Z,0
2023-01-01T01:53:54.779Z,0
2023-01-01T01:54:54.784Z,0
2023-01-01T01:55:54.834Z,0
2023-01-01T01:56:54.772Z,0
2023-01-01T01:57:54.778Z,0
2023-01-01T01:58:54.781Z,0
2023-01-01T01:59:54.797Z,0
2023-01-01T02:00:54.877Z,0
2023-01-01T02:01:54.875Z,0
2023-01-01T02:02:54.834Z,0
2023-01-01T02:03:54.775Z,0
2023-01-01T02:04:54.783Z,0
2023-01-01T02:05:54.781Z,0
2023-01-01T02:06:54.773Z,0
2023-01-01T02:07:54.786Z,0
2023-01-01T02:08:54.803Z,0
2023-01-01T02:09:54.792Z,0
2023-01-01T02:10:54.774Z,0
2023-01-01T02:11:54.778Z,0
2023-01-01T02:12:54.771Z,0
2023-01-01T02:13:54.774Z,0
2023-01-01T02:14:54.851Z,0
2023-01-01T02:15:54.785Z,0
2023-01-01T02:16:54.776Z,0
2023-01-01T02:17:54.761Z,0
2023-01-01T02:18:54.756Z,0
2023-01-01T02:19:54.766Z,0
2023-01-01T02:20:54.758Z,0
2023-01-01T02:21:54.768Z,0
2023-01-01T02:22:57.906Z,0
2023-01-01T02:23:54.774Z,0
2023-01-01T02:24:54.776Z,0
2023-01-01T02:25:54.757Z,0
2023-01-01T02:26:54.748Z,0
2023-01-01T02:27:54.752Z,0
2023-01-01T02:28:54.759Z,0
2023-01-01T02:29:54.769Z,0
2023-01-01T02:30:54.816Z,0
2023-01-01T02:31:54.763Z,0
2023-01-01T02:32:54.759Z,0
2023-01-01T02:33:54.765Z,0
2023-01-01T02:34:54.971Z,0
2023-01-01T02:35:54.750Z,0
2023-01-01T02:36:54.754Z,0
2023-01-01T02:37:54.763Z,0
2023-01-01T02:38:54.753Z,0
2023-01-01T02:39:54.778Z,0
2023-01-01T02:40:54.856Z,0
2023-01-01T02:41:54.755Z,0
2023-01-01T02:42:54.777Z,0
2023-01-01T02:43:54.799Z,0
2023-01-01T02:44:54.806Z,0
2023-01-01T02:45:54.817Z,0
2023-01-01T02:46:54.831Z,0
2023-01-01T02:47:54.783Z,0
2023-01-01T02:48:54.788Z,0
2023-01-01T02:49:54.813Z,0
2023-01-01T02:50:54.776Z,0
2023-01-01T02:51:54.779Z,0
2023-01-01T02:52:54.834Z,0
2023-01-01T02:53:54.772Z,0
2023-01-01T02:54:54.784Z,0
2023-01-01T02:55:54.771Z,0
2023-01-01T02:56:54.772Z,0
2023-01-01T02:57:54.784Z,0
2023-01-01T02:58:54.767Z,0
2023-01-01T02:59:54.793Z,0
2023-01-01T03:00:54.782Z,0
2023-01-01T03:01:54.931Z,0
2023-01-01T03:02:54.851Z,0
2023-01-01T03:03:54.779Z,0
2023-01-01T03:04:54.786Z,0
2023-01-01T03:05:54.773Z,0
2023-01-01T03:06:54.781Z,0
2023-01-01T03:07:54.784Z,0
2023-01-01T03:08:54.769Z,0
2023-01-01T03:09:54.789Z,0
2023-01-01T03:10:54.776Z,0
2023-01-01T03:11:54.779Z,0
2023-01-01T03:12:54.765Z,0
2023-01-01T03:13:54.784Z,0
2023-01-01T03:14:54.780Z,0
2023-01-01T03:15:54.813Z,0
2023-01-01T03:16:54.772Z,0
2023-01-01T03:17:54.866Z,0
2023-01-01T03:18:54.770Z,0
2023-01-01T03:19:54.789Z,0
2023-01-01T03:20:54.835Z,0
2023-01-01T03:21:54.817Z,0
2023-01-01T03:22:54.777Z,0
2023-01-01T03:23:54.949Z,0
2023-01-01T03:24:54.803Z,0
2023-01-01T03:25:54.788Z,0
2023-01-01T03:26:54.765Z,0
2023-01-01T03:27:54.759Z,0
2023-01-01T03:28:54.770Z,0
2023-01-01T03:29:54.771Z,0
2023-01-01T03:30:54.815Z,0
2023-01-01T03:31:54.762Z,0
2023-01-01T03:32:54.781Z,0
2023-01-01T03:33:54.765Z,0
2023-01-01T03:34:54.787Z,0
2023-01-01T03:35:54.759Z,0
2023-01-01T03:36:54.759Z,0
2023-01-01T03:37:54.757Z,0
2023-01-01T03:38:54.759Z,0
2023-01-01T03:39:54.778Z,0
2023-01-01T03:40:54.752Z,0
2023-01-01T03:41:54.771Z,0
2023-01-01T03:42:54.763Z,0
2023-01-01T03:43:54.757Z,0
2023-01-01T03:44:54.774Z,0
2023-01-01T03:45:54.766Z,0
2023-01-01T03:46:54.798Z,0
2023-01-01T03:47:54.759Z,0
2023-01-01T03:49:02.191Z,0
2023-01-01T03:49:54.780Z,0
2023-01-01T03:50:54.762Z,0
2023-01-01T03:51:54.753Z,0
2023-01-01T03:52:54.754Z,0
2023-01-01T03:53:54.778Z,0
2023-01-01T03:54:58.883Z,0
2023-01-01T03:55:54.786Z,0
2023-01-01T03:56:54.789Z,0
2023-01-01T03:57:54.775Z,0
2023-01-01T03:58:54.772Z,0
2023-01-01T03:59:54.780Z,0
2023-01-01T04:00:54.882Z,0
2023-01-01T04:01:54.852Z,0
2023-01-01T04:02:54.830Z,0
2023-01-01T04:03:54.770Z,0
2023-01-01T04:04:54.787Z,0
2023-01-01T04:05:54.771Z,0
2023-01-01T04:06:54.789Z,0
2023-01-01T04:07:54.804Z,0
2023-01-01T04:08:54.769Z,0
2023-01-01T04:09:54.783Z,0
2023-01-01T04:10:54.778Z,0
2023-01-01T04:11:54.785Z,0
2023-01-01T04:12:54.772Z,0
2023-01-01T04:13:54.776Z,0
2023-01-01T04:14:54.795Z,0
2023-01-01T04:15:54.812Z,0
2023-01-01T04:16:54.768Z,0
2023-01-01T04:17:54.783Z,0
2023-01-01T04:18:54.789Z,0
2023-01-01T04:19:55.149Z,0
2023-01-01T04:20:54.782Z,0
2023-01-01T04:21:54.775Z,0
2023-01-01T04:22:54.781Z,0
2023-01-01T04:23:54.776Z,0
2023-01-01T04:24:54.797Z,0
2023-01-01T04:25:54.770Z,0
2023-01-01T04:26:54.779Z,0
2023-01-01T04:27:54.780Z,0
2023-01-01T04:28:54.785Z,0
2023-01-01T04:29:54.774Z,0
2023-01-01T04:31:54.796Z,0
2023-01-01T04:32:54.780Z,0
2023-01-01T04:33:54.781Z,0
2023-01-01T04:34:54.790Z,0
2023-01-01T04:35:54.771Z,0
2023-01-01T04:36:54.771Z,0
2023-01-01T04:37:54.784Z,0
2023-01-01T04:38:54.786Z,0
2023-01-01T04:39:54.775Z,0
2023-01-01T04:40:54.764Z,0
2023-01-01T04:41:54.761Z,0
2023-01-01T04:42:54.760Z,0
2023-01-01T04:43:54.759Z,0
2023-01-01T04:44:54.770Z,0
2023-01-01T04:45:54.816Z,0
2023-01-01T04:46:59.990Z,0
2023-01-01T04:47:54.761Z,0
2023-01-01T04:48:54.762Z,0
2023-01-01T04:49:54.782Z,0
2023-01-01T04:50:54.757Z,0
2023-01-01T04:51:54.755Z,0
2023-01-01T04:52:54.764Z,0
2023-01-01T04:53:54.794Z,0
2023-01-01T04:54:54.798Z,0
2023-01-01T04:55:54.766Z,0
2023-01-01T04:56:54.755Z,0
2023-01-01T04:57:54.752Z,0
2023-01-01T04:58:54.755Z,0
2023-01-01T04:59:54.789Z,0
2023-01-01T05:00:54.792Z,0
2023-01-01T05:01:55.031Z,0
2023-01-01T05:02:54.836Z,0
2023-01-01T05:03:54.766Z,0
2023-01-01T05:04:54.787Z,0
2023-01-01T05:05:54.778Z,0
2023-01-01T05:06:54.782Z,0
2023-01-01T05:07:54.786Z,0
2023-01-01T05:08:54.786Z,0
2023-01-01T05:09:54.794Z,0
2023-01-01T05:10:54.760Z,0
2023-01-01T05:11:54.787Z,0
2023-01-01T05:12:54.780Z,0
2023-01-01T05:13:54.776Z,0
2023-01-01T05:14:54.791Z,0
2023-01-01T05:15:54.776Z,0
2023-01-01T05:16:54.815Z,0
2023-01-01T05:17:54.773Z,0
2023-01-01T05:18:54.776Z,0
2023-01-01T05:19:54.793Z,0
2023-01-01T05:20:54.759Z,0
2023-01-01T05:21:54.805Z,0
2023-01-01T05:22:54.773Z,0
2023-01-01T05:23:54.774Z,0
2023-01-01T05:24:54.785Z,0
2023-01-01T05:25:54.777Z,0
2023-01-01T05:26:54.780Z,0
2023-01-01T05:27:54.775Z,0
2023-01-01T05:28:54.776Z,0
2023-01-01T05:29:54.788Z,0
2023-01-01T05:30:54.786Z,0
2023-01-01T05:31:54.919Z,0
2023-01-01T05:32:54.782Z,0
2023-01-01T05:33:54.779Z,0
2023-01-01T05:34:54.803Z,0
2023-01-01T05:35:54.787Z,0
2023-01-01T05:36:54.769Z,0
2023-01-01T05:37:54.771Z,0
2023-01-01T05:38:54.775Z,0
2023-01-01T05:39:54.795Z,0
2023-01-01T05:40:54.757Z,0
2023-01-01T05:41:54.846Z,0
2023-01-01T05:42:54.785Z,0
2023-01-01T05:43:54.773Z,0
2023-01-01T05:44:54.784Z,0
2023-01-01T05:45:54.802Z,0
2023-01-01T05:46:54.770Z,0
2023-01-01T05:47:54.767Z,0
2023-01-01T05:48:54.764Z,0
2023-01-01T05:49:54.772Z,0
2023-01-01T05:50:54.761Z,0
2023-01-01T05:51:54.773Z,0
2023-01-01T05:52:54.868Z,0
2023-01-01T05:53:54.765Z,0
2023-01-01T05:54:54.791Z,0
2023-01-01T05:55:54.798Z,0
2023-01-01T05:56:54.783Z,0
2023-01-01T05:57:54.760Z,0
2023-01-01T05:58:54.860Z,0
2023-01-01T05:59:54.781Z,0
2023-01-01T06:00:54.768Z,0
2023-01-01T06:01:54.903Z,0
2023-01-01T06:02:54.797Z,0
2023-01-01T06:03:54.903Z,0
2023-01-01T06:04:54.782Z,0
2023-01-01T06:05:54.761Z,0
2023-01-01T06:06:54.759Z,0
2023-01-01T06:07:54.773Z,0
2023-01-01T06:08:54.768Z,0
2023-01-01T06:09:54.779Z,0
2023-01-01T06:10:54.755Z,0
2023-01-01T06:11:54.788Z,0
2023-01-01T06:12:54.773Z,0
2023-01-01T06:13:54.759Z,0
2023-01-01T06:14:54.783Z,0
2023-01-01T06:15:54.773Z,0
2023-01-01T06:16:54.802Z,0
2023-01-01T06:17:54.791Z,0
2023-01-01T06:18:54.778Z,0
2023-01-01T06:19:54.790Z,0
2023-01-01T06:20:54.762Z,0
2023-01-01T06:21:54.778Z,0
2023-01-01T06:22:54.778Z,0
2023-01-01T06:23:54.779Z,0
2023-01-01T06:24:54.780Z,0
2023-01-01T06:25:54.774Z,0
2023-01-01T06:26:54.776Z,0
2023-01-01T06:27:54.780Z,0
2023-01-01T06:28:54.771Z,0
2023-01-01T06:29:54.797Z,0
2023-01-01T06:30:54.807Z,0
2023-01-01T06:31:54.784Z,1
2023-01-01T06:32:54.772Z,1
2023-01-01T06:33:54.786Z,1
2023-01-01T06:34:54.801Z,3
2023-01-01T06:35:54.776Z,3
2023-01-01T06:36:54.772Z,5
2023-01-01T06:37:54.774Z,7
2023-01-01T06:38:54.780Z,9
2023-01-01T06:39:54.795Z,11
2023-01-01T06:40:54.783Z,12
2023-01-01T06:41:54.770Z,16
2023-01-01T06:42:54.772Z,18
2023-01-01T06:43:54.784Z,22
2023-01-01T06:44:54.777Z,27
2023-01-01T06:45:54.795Z,29
2023-01-01T06:46:54.770Z,35
2023-01-01T06:47:54.780Z,40
2023-01-01T06:48:54.810Z,47
2023-01-01T06:49:54.804Z,55
2023-01-01T06:50:54.781Z,62
2023-01-01T06:51:54.778Z,68
2023-01-01T06:52:54.773Z,77
2023-01-01T06:53:54.782Z,86
2023-01-01T06:54:54.785Z,97
2023-01-01T06:55:57.388Z,110
2023-01-01T06:56:54.877Z,125
2023-01-01T06:57:54.761Z,143
2023-01-01T06:58:54.763Z,164
2023-01-01T06:59:54.773Z,186
2023-01-01T07:00:54.797Z,211
2023-01-01T07:01:54.812Z,241
2023-01-01T07:02:54.851Z,272
2023-01-01T07:03:54.759Z,302
2023-01-01T07:04:54.792Z,326
2023-01-01T07:05:54.767Z,350
2023-01-01T07:06:54.764Z,370
2023-01-01T07:07:54.772Z,399
2023-01-01T07:08:54.767Z,422
2023-01-01T07:09:54.780Z,451
2023-01-01T07:10:54.758Z,477
2023-01-01T07:11:54.767Z,506
2023-01-01T07:12:54.775Z,540
2023-01-01T07:13:54.755Z,575
2023-01-01T07:14:54.770Z,613
2023-01-01T07:15:54.825Z,658
2023-01-01T07:16:54.750Z,698
2023-01-01T07:17:54.764Z,750
2023-01-01T07:18:54.766Z,790
2023-01-01T07:19:54.784Z,847
2023-01-01T07:20:54.762Z,901
2023-01-01T07:21:54.778Z,960
2023-01-01T07:22:54.762Z,1024
2023-01-01T07:23:54.774Z,1091
2023-01-01T07:24:54.797Z,1152
2023-01-01T07:25:54.781Z,1222
2023-01-01T07:26:54.782Z,1277
2023-01-01T07:27:54.772Z,1338
2023-01-01T07:28:56.414Z,1397
2023-01-01T07:29:54.789Z,1461
2023-01-01T07:30:54.822Z,1542
2023-01-01T07:31:54.778Z,1616
2023-01-01T07:32:54.774Z,1666
2023-01-01T07:33:54.782Z,1741
2023-01-01T07:34:54.788Z,1828
2023-01-01T07:35:54.760Z,1904
2023-01-01T07:36:54.776Z,1974
2023-01-01T07:37:54.771Z,2038
2023-01-01T07:38:54.788Z,2038
2023-01-01T07:39:54.808Z,2197
2023-01-01T07:40:54.780Z,2267
2023-01-01T07:41:54.779Z,2355
2023-01-01T07:42:54.775Z,2390
2023-01-01T07:43:54.777Z,2453
2023-01-01T07:44:54.786Z,2515
2023-01-01T07:45:54.850Z,2567
2023-01-01T07:46:54.774Z,2637
2023-01-01T07:47:54.763Z,2681
2023-01-01T07:48:54.774Z,2718
2023-01-01T07:49:54.795Z,2757
2023-01-01T07:50:54.762Z,2757
2023-01-01T07:51:54.771Z,2851
2023-01-01T07:52:54.784Z,2864
2023-01-01T07:53:54.769Z,2904
2023-01-01T07:54:54.776Z,2941
2023-01-01T07:55:54.783Z,2997
2023-01-01T07:56:54.781Z,3085
2023-01-01T07:57:54.778Z,3039
2023-01-01T07:58:54.781Z,3076
2023-01-01T07:59:54.799Z,3138
2023-01-01T08:00:54.767Z,3140
2023-01-01T08:01:54.889Z,3190
2023-01-01T08:02:54.881Z,3221
2023-01-01T08:03:54.780Z,3277
2023-01-01T08:04:54.799Z,3297
2023-01-01T08:05:54.774Z,3338
2023-01-01T08:06:54.781Z,3398
2023-01-01T08:07:54.777Z,3465
2023-01-01T08:08:54.779Z,3527
2023-01-01T08:09:54.843Z,3592
2023-01-01T08:11:00.246Z,3601
2023-01-01T08:11:54.784Z,3644
2023-01-01T08:12:54.774Z,3684
2023-01-01T08:13:54.794Z,3929
2023-01-01T08:14:54.775Z,4314
2023-01-01T08:15:54.797Z,4359
2023-01-01T08:16:54.763Z,4663
2023-01-01T08:17:54.765Z,5157
2023-01-01T08:18:54.763Z,5594
2023-01-01T08:19:54.769Z,5149
2023-01-01T08:20:54.761Z,4960
2023-01-01T08:21:54.764Z,5317
2023-01-01T08:22:54.752Z,5081
2023-01-01T08:23:54.785Z,5210
2023-01-01T08:24:54.765Z,5125
2023-01-01T08:25:54.760Z,4779
2023-01-01T08:26:54.816Z,4689
2023-01-01T08:27:54.763Z,4478
2023-01-01T08:28:57.380Z,4442
2023-01-01T08:29:54.773Z,4296
2023-01-01T08:30:54.798Z,4296
2023-01-01T08:31:54.766Z,4108
2023-01-01T08:32:54.769Z,3999
2023-01-01T08:33:54.764Z,3824
2023-01-01T08:34:54.781Z,3761
2023-01-01T08:35:55.019Z,3738
2023-01-01T08:36:54.756Z,3765
2023-01-01T08:37:54.758Z,3843
2023-01-01T08:38:54.763Z,3843
2023-01-01T08:39:54.781Z,4055
2023-01-01T08:40:54.775Z,4191
2023-01-01T08:41:54.772Z,4456
2023-01-01T08:42:54.786Z,4963
2023-01-01T08:43:54.780Z,5542
2023-01-01T08:44:54.788Z,5839
2023-01-01T08:45:54.775Z,6014
2023-01-01T08:46:54.920Z,5964
2023-01-01T08:47:54.771Z,5527
2023-01-01T08:48:54.774Z,5852
2023-01-01T08:49:54.797Z,6242
2023-01-01T08:50:54.765Z,7122
2023-01-01T08:51:54.777Z,7153
2023-01-01T08:52:54.781Z,7811
2023-01-01T08:53:54.773Z,6532
2023-01-01T08:54:54.785Z,5973
2023-01-01T08:55:54.772Z,6250
2023-01-01T08:56:54.771Z,5876
2023-01-01T08:57:54.784Z,6134
2023-01-01T08:58:57.460Z,6075
2023-01-01T08:59:54.781Z,7149
2023-01-01T09:00:54.780Z,8041
2023-01-01T09:01:54.989Z,7890
2023-01-01T09:02:54.833Z,7708
2023-01-01T09:03:54.774Z,7566
2023-01-01T09:04:54.787Z,7957
2023-01-01T09:05:54.772Z,8804
2023-01-01T09:06:54.793Z,8913
2023-01-01T09:07:54.772Z,8357
2023-01-01T09:08:54.768Z,8156
2023-01-01T09:09:54.780Z,9002
2023-01-01T09:10:54.765Z,8937
2023-01-01T09:11:54.779Z,9676
2023-01-01T09:12:54.773Z,10408
2023-01-01T09:13:54.836Z,10062
2023-01-01T09:14:54.786Z,10310
2023-01-01T09:15:54.813Z,10609
2023-01-01T09:16:54.777Z,9890
2023-01-01T09:17:54.767Z,9287
2023-01-01T09:18:54.775Z,9496
2023-01-01T09:19:54.808Z,10482
2023-01-01T09:20:54.781Z,11339
2023-01-01T09:21:54.791Z,11643
2023-01-01T09:22:54.781Z,11669
2023-01-01T09:23:54.777Z,11733
2023-01-01T09:24:54.788Z,11761
2023-01-01T09:25:54.760Z,11967
2023-01-01T09:26:54.766Z,12323
2023-01-01T09:27:54.764Z,12522
2023-01-01T09:28:54.756Z,12439
2023-01-01T09:29:54.785Z,12614
2023-01-01T09:30:54.768Z,12224
2023-01-01T09:31:54.844Z,11945
2023-01-01T09:32:54.769Z,12233
2023-01-01T09:33:54.757Z,12203
2023-01-01T09:34:54.776Z,11606
2023-01-01T09:35:54.754Z,11484
2023-01-01T09:36:54.751Z,11578
2023-01-01T09:37:54.774Z,10784
2023-01-01T09:38:54.752Z,10784
2023-01-01T09:39:54.783Z,11127
2023-01-01T09:40:54.761Z,11881
2023-01-01T09:41:54.753Z,12402
2023-01-01T09:42:54.751Z,12950
2023-01-01T09:43:54.764Z,12388
2023-01-01T09:44:54.771Z,11604
2023-01-01T09:45:54.799Z,10438
2023-01-01T09:46:54.765Z,10133
2023-01-01T09:47:54.761Z,10108
2023-01-01T09:48:54.768Z,9980
2023-01-01T09:49:54.786Z,8615
2023-01-01T09:50:54.772Z,7811
2023-01-01T09:51:58.137Z,7477
2023-01-01T09:52:54.781Z,7245
2023-01-01T09:53:54.773Z,7033
2023-01-01T09:54:54.830Z,7240
2023-01-01T09:55:54.774Z,7326
2023-01-01T09:56:54.777Z,7923
2023-01-01T09:57:54.775Z,9190
2023-01-01T09:58:54.777Z,9448
2023-01-01T09:59:54.780Z,9214
2023-01-01T10:00:54.832Z,8733
2023-01-01T10:01:54.868Z,7770
2023-01-01T10:02:54.767Z,7899
2023-01-01T10:03:54.825Z,8174
2023-01-01T10:04:54.855Z,7940
2023-01-01T10:05:54.776Z,7665
2023-01-01T10:06:54.787Z,7092
2023-01-01T10:07:54.777Z,6709
2023-01-01T10:08:54.772Z,6849
2023-01-01T10:09:54.788Z,6841
2023-01-01T10:10:54.775Z,6316
2023-01-01T10:11:54.777Z,6209
2023-01-01T10:12:54.785Z,5949
2023-01-01T10:13:54.779Z,5815
2023-01-01T10:15:00.528Z,6060
2023-01-01T10:15:54.773Z,6021
2023-01-01T10:16:54.840Z,6126
2023-01-01T10:17:54.785Z,5848
2023-01-01T10:18:54.767Z,5760
2023-01-01T10:19:54.784Z,5798
2023-01-01T10:20:54.777Z,5889
2023-01-01T10:21:54.765Z,5970
2023-01-01T10:22:54.775Z,6119
2023-01-01T10:23:54.788Z,6370
2023-01-01T10:24:54.786Z,6700
2023-01-01T10:25:54.778Z,6845
2023-01-01T10:26:54.784Z,7393
2023-01-01T10:27:59.378Z,8246
2023-01-01T10:28:54.771Z,8810
2023-01-01T10:30:01.341Z,9455
2023-01-01T10:30:54.779Z,9451
2023-01-01T10:31:54.844Z,10189
2023-01-01T10:32:54.772Z,10672
2023-01-01T10:33:54.784Z,9737
2023-01-01T10:34:54.792Z,10060
2023-01-01T10:35:54.783Z,9392
2023-01-01T10:36:54.779Z,9955
2023-01-01T10:37:54.765Z,9370
2023-01-01T10:38:54.759Z,9370
2023-01-01T10:39:54.780Z,10710
2023-01-01T10:40:54.753Z,10710
2023-01-01T10:41:54.766Z,9920
2023-01-01T10:42:54.767Z,9427
2023-01-01T10:43:54.779Z,9498
2023-01-01T10:44:54.774Z,8438
2023-01-01T10:45:54.834Z,8014
2023-01-01T10:46:54.775Z,7809
2023-01-01T10:47:54.758Z,8034
2023-01-01T10:48:54.764Z,8257
2023-01-01T10:49:54.777Z,8895
2023-01-01T10:50:54.757Z,8530
2023-01-01T10:51:54.773Z,8849
2023-01-01T10:52:54.780Z,8570
2023-01-01T10:53:54.753Z,8169
2023-01-01T10:54:54.772Z,8047
2023-01-01T10:55:54.752Z,8994
2023-01-01T10:56:54.761Z,7783
2023-01-01T10:57:54.759Z,7743
2023-01-01T10:58:54.883Z,7468
2023-01-01T10:59:54.849Z,7057
2023-01-01T11:00:54.803Z,7221
2023-01-01T11:01:54.972Z,7785
2023-01-01T11:02:54.786Z,7815
2023-01-01T11:03:54.765Z,7942
2023-01-01T11:04:54.783Z,7538
2023-01-01T11:05:54.773Z,7573
2023-01-01T11:06:54.769Z,7802
2023-01-01T11:07:54.775Z,7920
2023-01-01T11:08:54.805Z,7837
2023-01-01T11:10:03.170Z,8065
2023-01-01T11:10:54.772Z,8205
2023-01-01T11:11:54.781Z,8126
2023-01-01T11:13:05.719Z,7938
2023-01-01T11:13:54.775Z,7966
2023-01-01T11:14:54.782Z,8222
2023-01-01T11:15:54.772Z,8596
2023-01-01T11:16:54.788Z,8438
2023-01-01T11:17:54.762Z,8401
2023-01-01T11:18:54.760Z,8296
2023-01-01T11:20:01.336Z,8073
2023-01-01T11:20:54.799Z,7909
2023-01-01T11:21:54.763Z,7826
2023-01-01T11:22:54.768Z,8974
2023-01-01T11:23:54.839Z,10008
2023-01-01T11:24:54.789Z,10371
2023-01-01T11:25:54.786Z,9361
2023-01-01T11:26:55.364Z,8922
2023-01-01T11:27:54.777Z,9446
2023-01-01T11:28:54.766Z,10454
2023-01-01T11:29:54.820Z,11429
2023-01-01T11:30:54.803Z,10985
2023-01-01T11:31:54.782Z,10403
2023-01-01T11:32:55.775Z,10144
2023-01-01T11:33:54.781Z,11273
2023-01-01T11:34:54.978Z,10834
2023-01-01T11:35:54.777Z,10806
2023-01-01T11:36:54.764Z,9302
2023-01-01T11:37:54.772Z,9138
2023-01-01T11:38:54.771Z,9138
2023-01-01T11:39:54.784Z,7518
2023-01-01T11:40:54.775Z,7547
2023-01-01T11:41:54.767Z,7297
2023-01-01T11:42:58.798Z,7295
2023-01-01T11:43:54.776Z,6904
2023-01-01T11:44:54.787Z,6755
2023-01-01T11:45:54.904Z,6559
2023-01-01T11:46:54.771Z,6635
2023-01-01T11:47:54.777Z,6775
2023-01-01T11:48:54.816Z,7061
2023-01-01T11:49:54.769Z,6875
2023-01-01T11:50:54.776Z,6554
2023-01-01T11:51:54.751Z,6606
2023-01-01T11:52:54.753Z,6865
2023-01-01T11:53:54.759Z,7581
2023-01-01T11:54:54.785Z,9400
2023-01-01T11:55:54.774Z,10351
2023-01-01T11:56:54.779Z,11302
2023-01-01T11:57:54.754Z,7804
2023-01-01T11:58:54.760Z,7597
2023-01-01T11:59:54.768Z,7179
2023-01-01T12:00:54.761Z,7664
2023-01-01T12:01:54.765Z,8205
2023-01-01T12:02:54.777Z,10039
2023-01-01T12:03:54.795Z,9247
2023-01-01T12:04:54.770Z,9617
2023-01-01T12:05:54.757Z,10078
2023-01-01T12:06:54.751Z,10893
2023-01-01T12:07:54.753Z,10323
2023-01-01T12:08:54.758Z,10970
2023-01-01T12:09:54.773Z,10885
2023-01-01T12:10:54.762Z,10887
2023-01-01T12:11:54.767Z,10362
2023-01-01T12:12:54.765Z,10784
2023-01-01T12:13:54.758Z,10906
2023-01-01T12:14:54.791Z,10672
2023-01-01T12:15:54.852Z,10697
2023-01-01T12:16:54.783Z,10626
2023-01-01T12:17:54.782Z,10520
2023-01-01T12:18:54.773Z,10148
2023-01-01T12:19:54.796Z,10038
2023-01-01T12:20:54.754Z,10038
2023-01-01T12:21:54.784Z,10227
2023-01-01T12:22:54.770Z,10124
2023-01-01T12:23:54.781Z,10484
2023-01-01T12:24:54.784Z,9942
2023-01-01T12:25:54.772Z,7769
2023-01-01T12:26:54.770Z,7170
2023-01-01T12:27:54.821Z,5601
2023-01-01T12:28:54.779Z,4840
2023-01-01T12:29:54.812Z,4598
2023-01-01T12:30:54.796Z,4375
2023-01-01T12:31:54.774Z,4215
2023-01-01T12:32:54.777Z,4095
2023-01-01T12:33:54.773Z,3979
2023-01-01T12:34:54.968Z,3879
2023-01-01T12:35:54.772Z,3913
2023-01-01T12:36:54.763Z,3948
2023-01-01T12:37:54.781Z,4001
2023-01-01T12:38:54.774Z,4001
2023-01-01T12:39:54.794Z,4086
2023-01-01T12:40:54.777Z,3913
2023-01-01T12:41:54.778Z,3760
2023-01-01T12:42:54.770Z,3625
2023-01-01T12:43:54.773Z,3491
2023-01-01T12:44:54.781Z,3384
2023-01-01T12:45:54.778Z,3262
2023-01-01T12:46:54.814Z,3181
2023-01-01T12:47:54.774Z,3087
2023-01-01T12:48:54.775Z,2928
2023-01-01T12:49:54.795Z,2766
2023-01-01T12:50:59.914Z,2654
2023-01-01T12:51:54.766Z,2615
2023-01-01T12:52:54.780Z,2678
2023-01-01T12:53:54.785Z,2757
2023-01-01T12:54:54.782Z,2818
2023-01-01T12:55:54.787Z,2833
2023-01-01T12:56:54.767Z,2786
2023-01-01T12:57:54.770Z,2715
2023-01-01T12:58:54.766Z,2624
2023-01-01T12:59:54.771Z,2523
2023-01-01T13:00:54.777Z,2436
2023-01-01T13:01:54.864Z,2359
2023-01-01T13:02:54.827Z,2311
2023-01-01T13:03:54.777Z,2292
2023-01-01T13:04:54.766Z,2254
2023-01-01T13:05:54.757Z,2210
2023-01-01T13:06:54.761Z,2180
2023-01-01T13:07:54.758Z,2211
2023-01-01T13:08:54.756Z,2304
2023-01-01T13:09:54.780Z,2451
2023-01-01T13:10:54.762Z,2604
2023-01-01T13:11:54.764Z,2676
2023-01-01T13:12:54.770Z,2692
2023-01-01T13:13:54.755Z,2644
2023-01-01T13:14:54.800Z,2648
2023-01-01T13:15:54.803Z,2705
2023-01-01T13:16:54.786Z,2801
2023-01-01T13:17:54.754Z,2886
2023-01-01T13:18:58.939Z,2971
2023-01-01T13:19:54.772Z,3111
2023-01-01T13:20:54.769Z,3262
2023-01-01T13:21:54.772Z,3461
2023-01-01T13:22:54.779Z,3607
2023-01-01T13:23:54.789Z,3688
2023-01-01T13:24:54.799Z,3747
2023-01-01T13:25:54.753Z,3723
2023-01-01T13:26:54.781Z,3679
2023-01-01T13:27:54.793Z,3660
2023-01-01T13:28:54.769Z,3612
2023-01-01T13:29:54.815Z,3555
2023-01-01T13:30:54.763Z,3492
2023-01-01T13:31:54.779Z,3444
2023-01-01T13:32:54.800Z,3373
2023-01-01T13:33:54.768Z,3325
2023-01-01T13:34:54.794Z,3286
2023-01-01T13:35:54.780Z,3262
2023-01-01T13:36:54.774Z,3229
2023-01-01T13:37:54.793Z,3170
2023-01-01T13:38:54.774Z,3170
2023-01-01T13:39:54.792Z,3050
2023-01-01T13:40:54.766Z,2987
2023-01-01T13:41:54.780Z,2917
2023-01-01T13:42:57.610Z,2834
2023-01-01T13:43:54.798Z,2751
2023-01-01T13:44:54.785Z,2670
2023-01-01T13:46:11.551Z,2584
2023-01-01T13:46:54.781Z,2497
2023-01-01T13:47:54.873Z,2423
2023-01-01T13:49:00.926Z,2350
2023-01-01T13:49:54.899Z,2268
2023-01-01T13:50:54.784Z,2206
2023-01-01T13:52:05.490Z,2163
2023-01-01T13:52:54.788Z,2106
2023-01-01T13:53:54.774Z,2062
2023-01-01T13:54:54.780Z,2018
2023-01-01T13:55:54.777Z,1986
2023-01-01T13:56:54.770Z,1955
2023-01-01T13:57:54.771Z,1891
2023-01-01T13:58:54.770Z,1863